Time;durP1;ratioP1;P1;durP2;ratioP2;P2;SDS_P1;SDS_P2;PMS_P1;PMS_P2;Temp;Humidity;BMP_temperature;BMP_pressure;BME280_temperature;BME280_humidity;BME280_pressure;Samples;Min_cycle;Max_cycle;Signal;HPM_P1;HPM_P2
2021/12/06 00:01:04;;;;;;;37.80;14.43;;;;;;;12.69;29.73;99497.41;5072762;28;20040;-73
2021/12/06 00:03:33;;;;;;;37.40;15.73;;;;;;;12.40;30.27;99496.38;5081168;28;20093;-73
2021/12/06 00:05:59;;;;;;;37.77;14.50;;;;;;;11.67;30.43;99503.72;5074578;28;20484;-72
2021/12/06 00:08:24;;;;;;;32.47;14.83;;;;;;;11.74;30.40;99496.75;5073984;28;20040;-72
2021/12/06 00:10:51;;;;;;;34.03;13.67;;;;;;;11.77;30.41;99505.22;5090733;28;20415;-73
2021/12/06 00:13:20;;;;;;;35.07;14.30;;;;;;;12.02;30.43;99500.69;5091323;28;20521;-73
2021/12/06 00:15:49;;;;;;;34.07;14.87;;;;;;;11.76;30.17;99497.41;5108155;28;20093;-72
2021/12/06 00:18:15;;;;;;;31.50;14.67;;;;;;;11.74;30.35;99497.56;5074497;28;20511;-74
2021/12/06 00:20:41;;;;;;;33.57;14.70;;;;;;;11.83;30.08;99501.03;5040603;28;20071;-74
2021/12/06 00:23:06;;;;;;;35.73;13.17;;;;;;;11.71;29.91;99503.25;5090974;28;20066;-73
2021/12/06 00:25:32;;;;;;;34.23;13.73;;;;;;;11.83;30.04;99487.72;5074412;28;20415;-73
2021/12/06 00:27:58;;;;;;;38.17;15.80;;;;;;;11.78;29.80;99477.59;5057697;28;20040;-73
2021/12/06 00:30:23;;;;;;;28.33;13.40;;;;;;;11.93;29.77;99492.88;5040869;28;20036;-73
2021/12/06 00:32:49;;;;;;;34.50;15.00;;;;;;;11.55;29.78;99427.91;5074263;28;20040;-73
2021/12/06 00:35:22;;;;;;;34.10;13.33;;;;;;;12.28;29.70;99492.44;5090734;28;20072;-73
2021/12/06 00:37:58;;;;;;;30.57;13.90;;;;;;;12.33;29.89;99496.22;5073875;28;20044;-74
2021/12/06 00:40:34;;;;;;;29.47;13.70;;;;;;;12.61;29.49;99484.13;5073621;28;20154;-73
2021/12/06 00:43:00;;;;;;;27.97;13.13;;;;;;;12.07;29.77;99490.31;5056957;28;20101;-73
2021/12/06 00:45:26;;;;;;;27.57;14.20;;;;;;;12.26;29.46;99460.66;5056781;28;20143;-74
2021/12/06 00:47:52;;;;;;;30.80;13.53;;;;;;;12.31;29.34;99503.56;5056784;28;20526;-74
2021/12/06 00:50:20;;;;;;;28.00;13.50;;;;;;;12.52;29.25;99471.84;5039822;28;20051;-75
2021/12/06 00:52:46;;;;;;;30.57;14.60;;;;;;;12.30;29.26;99474.47;5072317;28;20044;-72
2021/12/06 00:55:13;;;;;;;29.60;12.73;;;;;;;12.02;29.48;99495.34;5087873;28;20032;-74
2021/12/06 00:57:41;;;;;;;30.47;13.47;;;;;;;12.44;29.32;99493.19;5071172;28;20047;-74
2021/12/06 01:00:17;;;;;;;34.63;13.40;;;;;;;12.75;28.93;99466.53;5054780;28;20040;-74
2021/12/06 01:02:43;;;;;;;25.77;12.43;;;;;;;12.18;29.26;99476.66;5088000;28;20044;-74
2021/12/06 01:05:10;;;;;;;29.17;13.27;;;;;;;12.15;29.34;99454.88;5037622;28;20497;-74
2021/12/06 01:07:36;;;;;;;30.27;13.80;;;;;;;12.12;29.22;99460.53;5071820;28;20130;-74
2021/12/06 01:10:04;;;;;;;32.47;13.17;;;;;;;12.87;29.00;99481.97;5090374;28;20130;-74
2021/12/06 01:12:30;;;;;;;29.83;13.33;;;;;;;12.44;29.03;99487.84;5089928;28;20105;-74
2021/12/06 01:14:55;;;;;;;25.30;13.13;;;;;;;12.30;28.87;99477.13;5056545;28;20047;-74
2021/12/06 01:17:21;;;;;;;26.80;12.47;;;;;;;12.36;29.17;99474.56;5056333;28;20036;-74
2021/12/06 01:19:48;;;;;;;29.37;13.17;;;;;;;12.26;28.89;99451.81;5040151;28;20036;-74
2021/12/06 01:22:30;;;;;;;30.87;13.37;;;;;;;12.63;28.84;99463.47;5072569;28;20089;-75
2021/12/06 01:25:04;;;;;;;29.10;13.23;;;;;;;12.39;28.93;99479.59;5075720;28;20048;-74
2021/12/06 01:41:01;;;;;;;34.17;14.50;;;;;;;11.92;29.50;99496.56;5075299;28;20044;-74
2021/12/06 01:43:28;;;;;;;33.27;13.90;;;;;;;11.75;29.63;99493.06;5072207;28;20078;-74
2021/12/06 01:45:54;;;;;;;40.60;15.17;;;;;;;11.76;29.88;99492.91;5037745;28;20419;-74
2021/12/06 01:48:19;;;;;;;35.67;14.27;;;;;;;11.80;29.99;99501.38;5070066;28;20411;-74
2021/12/06 01:50:45;;;;;;;37.63;15.30;;;;;;;11.85;29.86;99491.06;5036374;28;20131;-74
2021/12/06 01:53:12;;;;;;;35.70;15.43;;;;;;;11.88;29.75;99506.69;5053015;28;20055;-75
2021/12/06 01:55:38;;;;;;;33.13;14.27;;;;;;;12.31;29.61;99506.25;5069462;28;20040;-74
2021/12/06 01:58:06;;;;;;;35.00;13.93;;;;;;;12.31;29.54;99508.06;5087186;28;20481;-76
2021/12/06 02:00:42;;;;;;;29.87;14.03;;;;;;;12.48;29.49;99509.66;5054412;28;20118;-74
2021/12/06 02:03:13;;;;;;;30.08;13.45;;;;;;;11.88;29.57;99501.38;5070495;28;20447;-75
2021/12/06 02:05:43;;;;;;;28.77;14.47;;;;;;;12.26;29.57;99505.91;5071046;28;20054;-75
2021/12/06 02:08:11;;;;;;;29.45;13.85;;;;;;;11.67;29.92;99488.59;5089300;28;20048;-74
2021/12/06 02:10:39;;;;;;;28.93;14.60;;;;;;;12.00;29.89;99512.47;5055973;28;20105;-74
2021/12/06 02:13:09;;;;;;;32.77;13.77;;;;;;;11.57;29.77;99495.91;5057042;28;20066;-73
2021/12/06 02:18:12;;;;;;;32.93;15.07;;;;;;;12.22;29.76;99509.94;5056567;28;20500;-73
2021/12/06 02:20:46;;;;;;;39.20;15.60;;;;;;;11.99;29.81;99506.34;5073688;28;20039;-71
2021/12/06 02:23:12;;;;;;;30.20;14.80;;;;;;;11.75;29.89;99512.53;5072587;28;20143;-75
2021/12/06 02:25:39;;;;;;;28.20;14.23;;;;;;;11.59;29.73;99520.47;5055954;28;20629;-75
2021/12/06 02:28:04;;;;;;;35.07;14.47;;;;;;;11.40;30.05;99514.69;5072486;28;20047;-74
2021/12/06 02:30:30;;;;;;;31.33;13.70;;;;;;;11.37;30.29;99521.16;5055908;28;20556;-74
2021/12/06 02:32:56;;;;;;;33.37;13.53;;;;;;;11.59;30.38;99517.81;5072422;28;20668;-74
2021/12/06 02:35:23;;;;;;;33.40;14.13;;;;;;;11.84;30.23;99518.66;5059877;28;20094;-74
2021/12/06 02:37:54;;;;;;;28.50;14.23;;;;;;;11.63;30.31;99521.88;5077430;28;20048;-74
2021/12/06 02:40:27;;;;;;;33.97;14.47;;;;;;;12.19;29.93;99522.75;5052664;28;20127;-74
2021/12/06 02:42:54;;;;;;;39.23;14.10;;;;;;;11.88;30.21;99520.00;5109149;28;20507;-74
2021/12/06 02:45:24;;;;;;;33.07;14.77;;;;;;;11.92;30.13;99516.00;5092657;28;20044;-75
2021/12/06 02:47:53;;;;;;;29.52;14.27;;;;;;;11.40;30.26;99528.81;5092449;28;20044;-73
2021/12/06 02:50:24;;;;;;;30.80;13.77;;;;;;;12.11;29.77;99520.09;5074795;28;20147;-74
2021/12/06 02:52:50;;;;;;;28.30;13.02;;;;;;;11.39;29.91;99534.31;5087618;28;20420;-75
2021/12/06 02:55:32;;;;;;;32.17;14.87;;;;;;;11.61;29.98;99541.59;5048781;28;20054;-74
2021/12/06 02:58:02;;;;;;;32.17;14.50;;;;;;;12.08;29.70;99515.13;5072063;28;20481;-73
2021/12/06 03:00:28;;;;;;;30.83;14.53;;;;;;;11.79;29.77;99537.78;5072083;28;20044;-74
2021/12/06 03:02:54;;;;;;;36.53;15.43;;;;;;;11.67;29.76;99552.44;5059335;28;20043;-73
2021/12/06 03:05:20;;;;;;;29.67;14.17;;;;;;;11.58;29.59;99549.91;5030021;28;20436;-74
2021/12/06 03:07:49;;;;;;;32.90;14.13;;;;;;;11.47;29.94;99566.22;5092722;28;20407;-74
2021/12/06 03:10:18;;;;;;;29.10;13.73;;;;;;;11.52;29.75;99550.56;5100945;28;20131;-74
2021/12/06 03:12:43;;;;;;;30.83;14.57;;;;;;;11.59;29.75;99555.06;5085065;28;20050;-74
2021/12/06 03:15:11;;;;;;;28.93;14.97;;;;;;;11.60;29.50;99559.41;5028568;28;20041;-74
2021/12/06 03:17:37;;;;;;;29.20;13.33;;;;;;;11.63;29.75;99563.56;5072432;28;20122;-73
2021/12/06 03:20:09;;;;;;;28.37;13.87;;;;;;;12.10;29.36;99553.88;5054781;28;20040;-73
2021/12/06 03:22:36;;;;;;;24.50;13.13;;;;;;;11.72;29.21;99571.41;5072243;28;20998;-75
2021/12/06 03:25:07;;;;;;;32.00;14.70;;;;;;;12.38;29.03;99554.34;5042539;28;20040;-75
2021/12/06 03:27:33;;;;;;;29.85;14.27;;;;;;;11.64;29.38;99574.06;5050357;28;20142;-75
2021/12/06 03:29:59;;;;;;;28.13;14.10;;;;;;;11.56;29.28;99575.88;5077805;28;20052;-75
2021/12/06 03:32:25;;;;;;;30.03;14.27;;;;;;;11.70;29.13;99572.56;5070997;28;20152;-74
2021/12/06 03:34:51;;;;;;;31.13;13.73;;;;;;;11.72;29.10;99574.06;5037801;28;20053;-74
2021/12/06 03:37:18;;;;;;;24.80;12.30;;;;;;;11.87;28.92;99569.72;5037459;28;20046;-74
2021/12/06 03:39:47;;;;;;;24.03;12.20;;;;;;;12.27;28.71;99560.00;5053823;28;20044;-74
2021/12/06 03:42:21;;;;;;;22.70;11.77;;;;;;;12.02;28.70;99569.03;5053757;28;20048;-73
2021/12/06 03:44:48;;;;;;;25.73;12.87;;;;;;;11.89;28.98;99574.88;5070167;28;20123;-75
2021/12/06 03:47:22;;;;;;;23.63;12.47;;;;;;;12.43;28.50;99571.44;5070772;28;20097;-75
2021/12/06 03:49:48;;;;;;;26.33;12.03;;;;;;;11.69;28.89;99549.59;5055571;28;20050;-75
2021/12/06 03:52:16;;;;;;;29.37;14.47;;;;;;;11.78;28.82;99573.38;5071139;28;20454;-74
2021/12/06 03:54:46;;;;;;;25.43;13.13;;;;;;;12.19;28.42;99578.66;5054407;28;20040;-75
2021/12/06 03:57:13;;;;;;;23.67;12.07;;;;;;;11.81;28.64;99580.19;5071096;28;20109;-72
2021/12/06 03:59:40;;;;;;;23.07;11.07;;;;;;;11.66;28.57;99581.88;5054152;28;20481;-75
2021/12/06 04:02:07;;;;;;;23.87;11.30;;;;;;;11.47;29.02;99584.84;5037783;28;20418;-74
2021/12/06 04:04:34;;;;;;;22.47;11.47;;;;;;;11.72;29.01;99582.03;5062731;28;20043;-77
2021/12/06 04:07:00;;;;;;;21.30;10.20;;;;;;;11.27;29.12;99588.78;5039923;28;20044;-72
2021/12/06 04:09:28;;;;;;;19.40;10.70;;;;;;;11.12;28.96;99561.16;5040218;28;20503;-69
2021/12/06 04:11:55;;;;;;;19.40;9.83;;;;;;;11.43;28.93;99605.59;5056352;28;20048;-72
2021/12/06 04:14:22;;;;;;;18.33;9.83;;;;;;;11.41;28.85;99596.09;5063783;28;20036;-72
2021/12/06 04:16:48;;;;;;;16.77;9.27;;;;;;;11.30;28.99;99604.41;5072404;28;20438;-71
2021/12/06 04:19:15;;;;;;;22.70;10.37;;;;;;;11.78;28.90;99607.13;5085896;28;20152;-73
2021/12/06 04:21:41;;;;;;;19.53;10.50;;;;;;;11.74;28.87;99611.97;5036112;28;20135;-71
2021/12/06 04:24:09;;;;;;;18.27;10.40;;;;;;;11.67;28.87;99607.47;5052454;28;20043;-71
2021/12/06 04:26:35;;;;;;;21.87;11.10;;;;;;;11.51;29.02;99602.13;5068504;28;20131;-72
2021/12/06 04:29:01;;;;;;;20.97;11.13;;;;;;;11.76;28.87;99601.97;5035694;28;20081;-69
2021/12/06 04:31:43;;;;;;;21.07;11.73;;;;;;;12.66;28.28;99604.34;5068452;28;20040;-71
2021/12/06 04:34:10;;;;;;;20.27;11.07;;;;;;;12.33;28.56;99608.06;5068764;28;20044;-71
2021/12/06 04:36:41;;;;;;;22.30;11.20;;;;;;;12.17;28.62;99612.59;5074554;28;20036;-71
2021/12/06 04:39:09;;;;;;;20.70;11.23;;;;;;;12.51;28.30;99615.88;5068492;28;20131;-69
2021/12/06 04:41:36;;;;;;;24.73;12.40;;;;;;;12.55;28.39;99618.03;5068221;28;20052;-72
2021/12/06 04:44:03;;;;;;;27.20;12.67;;;;;;;12.67;28.27;99621.16;5052233;28;20092;-74
2021/12/06 04:46:30;;;;;;;25.13;12.80;;;;;;;12.19;28.38;99611.47;5051527;28;20063;-73
2021/12/06 04:48:55;;;;;;;30.87;14.00;;;;;;;12.40;28.50;99614.41;5073263;28;20503;-74
2021/12/06 04:51:22;;;;;;;25.60;13.30;;;;;;;12.38;28.15;99615.59;5069835;28;20032;-73
2021/12/06 04:53:50;;;;;;;31.20;14.10;;;;;;;12.39;27.93;99620.75;5086825;28;20044;-70
2021/12/06 04:56:22;;;;;;;23.90;12.73;;;;;;;13.09;27.99;99627.84;5088106;28;20526;-69
2021/12/06 04:59:14;;;;;;;29.40;13.50;;;;;;;13.37;27.09;99625.53;5073149;28;20047;-75
2021/12/06 05:01:45;;;;;;;23.63;12.60;;;;;;;13.22;27.70;99628.09;5073052;28;20044;-76
2021/12/06 05:04:18;;;;;;;25.37;12.43;;;;;;;13.33;27.70;99625.03;5039876;28;20135;-77
2021/12/06 05:06:49;;;;;;;24.10;10.90;;;;;;;13.37;27.49;99634.38;5056257;28;20051;-77
2021/12/06 05:09:16;;;;;;;;;;;;;;;13.84;26.32;99615.50;5089790;28;20134;-75
2021/12/06 05:11:43;;;;;;;21.30;10.03;;;;;;;12.59;27.25;99629.97;5037807;28;19926;-76
2021/12/06 05:14:09;;;;;;;17.70;10.07;;;;;;;12.03;28.09;99635.41;5050021;28;20059;-77
2021/12/06 05:16:36;;;;;;;21.03;11.20;;;;;;;11.76;28.33;99647.22;5066517;28;20044;-77
2021/12/06 05:19:04;;;;;;;25.27;10.70;;;;;;;12.08;28.33;99643.75;5051933;28;20362;-79
2021/12/06 05:21:33;;;;;;;26.70;11.80;;;;;;;12.42;28.35;99631.06;5054363;28;20045;-77
2021/12/06 05:23:58;;;;;;;21.40;11.37;;;;;;;11.69;29.04;99622.28;5070228;28;20147;-76
2021/12/06 05:26:24;;;;;;;23.77;11.73;;;;;;;12.14;28.50;99636.91;5020621;28;20060;-75
2021/12/06 05:28:55;;;;;;;25.53;11.90;;;;;;;12.14;28.51;99643.06;5035933;28;20040;-76
2021/12/06 05:31:22;;;;;;;17.30;9.43;;;;;;;11.55;27.97;99653.97;5035321;28;20531;-71
2021/12/06 05:33:53;;;;;;;20.43;11.10;;;;;;;12.03;28.78;99637.25;5051088;28;20427;-72
2021/12/06 05:36:19;;;;;;;22.45;10.68;;;;;;;11.44;28.43;99635.69;5067636;28;20044;-73
2021/12/06 05:38:44;;;;;;;20.20;10.43;;;;;;;11.66;28.80;99638.56;5068589;28;20519;-73
2021/12/06 05:41:10;;;;;;;24.20;11.27;;;;;;;11.88;28.66;99631.78;5051583;28;20486;-72
2021/12/06 05:43:36;;;;;;;20.33;10.53;;;;;;;11.82;28.07;99649.22;5069379;28;20067;-72
2021/12/06 05:46:02;;;;;;;20.63;11.07;;;;;;;11.60;29.01;99656.97;5051360;28;20051;-72
2021/12/06 05:48:29;;;;;;;20.80;10.37;;;;;;;12.18;28.20;99662.22;5051247;28;20063;-72
2021/12/06 05:50:54;;;;;;;21.77;10.10;;;;;;;11.37;29.09;99648.81;5069002;28;20041;-72
2021/12/06 05:53:21;;;;;;;18.60;10.27;;;;;;;11.87;28.33;99652.22;5050667;28;20048;-73
2021/12/06 05:55:48;;;;;;;23.20;11.20;;;;;;;11.51;28.48;99657.97;5048433;28;20044;-69
2021/12/06 05:58:16;;;;;;;22.10;10.70;;;;;;;11.77;28.54;99659.53;5068137;28;20078;-72
2021/12/06 06:00:42;;;;;;;20.40;10.77;;;;;;;10.38;29.83;99656.66;5088728;28;20565;-72
2021/12/06 06:03:10;;;;;;;22.27;10.33;;;;;;;10.77;29.96;99628.66;5071413;28;20040;-73
2021/12/06 06:05:36;;;;;;;27.33;11.47;;;;;;;11.10;29.37;99634.94;5088164;28;20142;-74
2021/12/06 06:08:03;;;;;;;25.27;11.63;;;;;;;10.94;29.55;99656.13;5088280;28;20070;-73
2021/12/06 06:10:32;;;;;;;26.93;11.53;;;;;;;10.40;30.17;99653.84;5074537;28;20044;-73
2021/12/06 06:12:59;;;;;;;28.70;12.40;;;;;;;11.06;30.06;99668.97;5073592;28;20602;-72
2021/12/06 06:15:26;;;;;;;21.17;10.73;;;;;;;10.29;29.40;99673.50;5075342;28;20122;-73
2021/12/06 06:17:52;;;;;;;27.70;11.23;;;;;;;10.81;29.54;99669.84;5059174;28;20509;-72
2021/12/06 06:20:24;;;;;;;25.60;11.57;;;;;;;11.40;28.91;99652.94;5091712;28;20065;-67
2021/12/06 06:22:50;;;;;;;17.80;9.23;;;;;;;10.42;29.36;99675.75;5092330;28;20036;-73
2021/12/06 06:25:16;;;;;;;21.27;10.27;;;;;;;10.09;30.10;99675.53;5093570;28;20492;-74
2021/12/06 06:27:45;;;;;;;18.37;9.20;;;;;;;10.92;29.86;99660.75;5074883;28;20116;-73
2021/12/06 06:30:12;;;;;;;21.97;10.13;;;;;;;11.01;29.55;99665.94;5093058;28;20040;-73
2021/12/06 06:32:38;;;;;;;16.70;8.23;;;;;;;10.86;28.49;99701.25;5092280;28;20036;-73
2021/12/06 06:35:05;;;;;;;17.27;7.90;;;;;;;10.47;29.65;99658.34;5092418;28;20568;-73
2021/12/06 06:37:31;;;;;;;13.20;7.30;;;;;;;10.18;29.40;99685.22;5074380;28;20069;-72
2021/12/06 06:39:57;;;;;;;12.37;5.83;;;;;;;9.52;29.85;99686.56;5108503;28;20524;-73
2021/12/06 06:42:23;;;;;;;12.20;6.20;;;;;;;9.72;30.22;99689.91;5092788;28;20426;-71
2021/12/06 06:44:51;;;;;;;14.03;7.20;;;;;;;10.76;29.68;99696.06;5074711;28;20090;-72
2021/12/06 06:47:17;;;;;;;14.57;7.30;;;;;;;10.49;29.66;99712.16;5092633;28;20047;-73
2021/12/06 06:49:43;;;;;;;13.33;6.63;;;;;;;10.44;29.68;99711.78;5091457;28;20059;-72
2021/12/06 06:52:09;;;;;;;13.57;6.57;;;;;;;10.43;29.37;99706.63;5075347;28;20806;-73
2021/12/06 06:54:35;;;;;;;11.43;6.43;;;;;;;10.42;29.01;99707.63;5091255;28;20166;-72
2021/12/06 06:57:01;;;;;;;11.87;6.97;;;;;;;10.20;29.38;99707.13;5057584;28;20503;-70
2021/12/06 06:59:27;;;;;;;12.47;6.77;;;;;;;10.08;29.50;99704.88;5075210;28;20492;-73
2021/12/06 07:01:53;;;;;;;16.93;7.60;;;;;;;10.45;29.36;99715.28;5074416;28;20100;-72
2021/12/06 07:04:19;;;;;;;15.47;8.10;;;;;;;10.40;29.03;99728.19;5074475;28;20044;-72
2021/12/06 07:06:44;;;;;;;16.03;7.83;;;;;;;9.66;30.16;99717.88;5074559;28;20515;-69
2021/12/06 07:09:10;;;;;;;20.67;8.90;;;;;;;9.91;30.08;99700.38;5092364;28;20212;-72
2021/12/06 07:11:36;;;;;;;18.20;9.07;;;;;;;10.20;29.32;99717.75;5093783;28;20036;-72
2021/12/06 07:14:02;;;;;;;17.47;8.73;;;;;;;10.25;29.20;99727.91;5093253;28;20092;-74
2021/12/06 07:16:29;;;;;;;19.43;8.87;;;;;;;10.10;29.49;99726.78;5074367;28;20063;-73
2021/12/06 07:18:56;;;;;;;18.13;9.37;;;;;;;10.23;29.89;99745.81;5074138;28;20135;-73
2021/12/06 07:21:22;;;;;;;19.43;9.93;;;;;;;9.34;30.98;99729.94;5106031;28;20097;-73
2021/12/06 07:23:48;;;;;;;23.90;10.77;;;;;;;9.38;30.58;99692.38;5091076;28;20594;-68
2021/12/06 07:26:17;;;;;;;25.27;11.30;;;;;;;10.57;30.06;99722.00;5091231;28;20408;-73
2021/12/06 07:28:45;;;;;;;24.63;11.63;;;;;;;10.94;29.25;99719.91;5057645;28;20181;-72
2021/12/06 07:31:14;;;;;;;23.43;11.53;;;;;;;10.96;28.91;99724.06;5073343;28;20421;-73
2021/12/06 07:33:42;;;;;;;24.97;11.27;;;;;;;11.47;28.77;99739.09;5073122;28;20539;-73
2021/12/06 07:36:08;;;;;;;25.67;10.83;;;;;;;10.39;29.21;99748.59;5057122;28;20039;-72
2021/12/06 07:38:35;;;;;;;29.70;13.30;;;;;;;10.87;28.83;99740.94;5073693;28;20155;-70
2021/12/06 07:41:01;;;;;;;31.00;12.50;;;;;;;11.07;28.77;99746.88;5056891;28;20407;-73
2021/12/06 07:43:27;;;;;;;27.10;12.57;;;;;;;10.65;28.93;99740.66;5073406;28;20052;-73
2021/12/06 07:45:52;;;;;;;30.73;13.13;;;;;;;10.23;29.61;99735.19;5090678;28;20036;-73
2021/12/06 07:48:19;;;;;;;34.10;13.63;;;;;;;10.80;28.99;99726.63;5092547;28;20051;-72
2021/12/06 07:50:44;;;;;;;31.77;14.33;;;;;;;10.46;29.12;99733.72;5108286;28;20102;-71
2021/12/06 07:53:10;;;;;;;34.30;13.77;;;;;;;10.46;29.29;99733.72;5073733;28;20040;-72
2021/12/06 07:55:37;;;;;;;31.37;14.33;;;;;;;10.85;29.13;99734.13;5107101;28;20051;-74
2021/12/06 07:58:04;;;;;;;31.77;13.90;;;;;;;11.46;28.97;99724.09;5090145;28;20043;-72
2021/12/06 08:00:33;;;;;;;32.43;13.93;;;;;;;11.26;28.83;99733.34;5073021;28;20044;-71
2021/12/06 08:02:59;;;;;;;34.23;14.90;;;;;;;10.48;29.54;99745.03;5073757;28;20044;-68
2021/12/06 08:05:30;;;;;;;34.60;16.30;;;;;;;10.05;30.90;99731.69;5053227;28;20897;-72
2021/12/06 08:08:22;;;;;;;32.70;14.38;;;;;;;10.34;30.44;99740.25;5053595;28;20453;-72
2021/12/06 08:10:51;;;;;;;43.53;17.20;;;;;;;9.90;30.97;99712.81;5086859;28;20438;-72
2021/12/06 08:13:21;;;;;;;41.97;16.47;;;;;;;10.47;30.43;99737.22;5069356;28;20048;-72
2021/12/06 08:15:47;;;;;;;38.33;16.23;;;;;;;9.95;30.93;99739.72;5069570;28;20090;-73
2021/12/06 08:18:13;;;;;;;38.27;15.47;;;;;;;9.57;31.03;99740.00;5069497;28;20047;-72
2021/12/06 08:20:39;;;;;;;33.93;15.73;;;;;;;10.10;30.23;99753.34;5069645;28;20044;-71
2021/12/06 08:23:05;;;;;;;43.90;17.67;;;;;;;10.74;30.16;99753.00;5071775;28;20041;-69
2021/12/06 08:25:31;;;;;;;37.57;15.53;;;;;;;10.53;29.62;99757.81;5069317;28;20045;-72
2021/12/06 08:27:57;;;;;;;34.23;14.50;;;;;;;10.09;29.97;99760.44;5052892;28;20043;-72
2021/12/06 08:30:25;;;;;;;37.10;15.83;;;;;;;10.15;30.55;99743.91;5069235;28;20393;-72
2021/12/06 08:32:57;;;;;;;31.67;13.93;;;;;;;10.23;29.64;99754.59;5068485;28;20047;-74
2021/12/06 08:35:23;;;;;;;37.73;15.30;;;;;;;9.68;30.68;99744.25;5052241;28;20044;-72
2021/12/06 08:37:49;;;;;;;33.07;14.97;;;;;;;10.06;30.00;99741.31;5069341;28;20518;-73
2021/12/06 08:40:16;;;;;;;37.40;15.07;;;;;;;9.97;30.29;99790.81;5069599;28;20094;-70
2021/12/06 08:42:43;;;;;;;40.27;15.23;;;;;;;9.99;30.52;99772.91;5085696;28;20056;-74
2021/12/06 08:45:10;;;;;;;35.10;14.10;;;;;;;9.96;30.39;99752.00;5070298;28;20048;-72
2021/12/06 08:47:37;;;;;;;37.93;15.33;;;;;;;10.36;29.95;99775.47;5068700;28;20825;-71
2021/12/06 08:50:04;;;;;;;39.30;15.57;;;;;;;10.83;29.53;99787.44;5068467;28;20135;-72
2021/12/06 08:52:30;;;;;;;30.57;13.33;;;;;;;10.31;29.10;99785.69;5069642;28;20055;-70
2021/12/06 08:54:56;;;;;;;33.07;12.70;;;;;;;10.06;29.48;99755.41;5068544;28;20135;-71
2021/12/06 08:57:22;;;;;;;27.73;11.60;;;;;;;9.85;29.37;99752.25;5034952;28;20060;-71
2021/12/06 08:59:47;;;;;;;26.20;11.30;;;;;;;9.84;29.41;99782.38;5052074;28;20083;-70
2021/12/06 09:02:15;;;;;;;25.73;10.50;;;;;;;10.20;29.63;99776.16;5069921;28;20044;-70
2021/12/06 09:04:41;;;;;;;29.13;12.13;;;;;;;10.23;29.61;99775.84;5068961;28;20142;-71
2021/12/06 09:07:13;;;;;;;24.77;11.07;;;;;;;10.54;29.36;99775.41;5070025;28;20469;-69
2021/12/06 09:09:46;;;;;;;28.20;11.70;;;;;;;10.61;29.43;99766.69;5067941;28;20098;-70
2021/12/06 09:12:19;;;;;;;27.87;11.07;;;;;;;11.05;28.61;99768.31;5029337;28;20048;-70
2021/12/06 09:14:46;;;;;;;31.27;11.50;;;;;;;10.33;29.04;99759.00;5088744;28;20105;-70
2021/12/06 09:17:12;;;;;;;23.47;10.57;;;;;;;10.05;29.36;99769.69;5071556;28;20061;-72
2021/12/06 09:19:38;;;;;;;25.60;11.37;;;;;;;9.12;30.53;99762.16;5089080;28;20145;-70
2021/12/06 09:22:05;;;;;;;33.17;12.67;;;;;;;9.40;30.35;99764.66;5105158;28;20043;-70
2021/12/06 09:24:32;;;;;;;30.53;12.93;;;;;;;9.26;30.60;99757.19;5088379;28;20036;-70
2021/12/06 09:27:00;;;;;;;34.30;13.90;;;;;;;9.54;30.02;99760.66;5087927;28;20050;-70
2021/12/06 09:29:26;;;;;;;34.13;12.20;;;;;;;9.64;29.82;99764.91;5071074;28;20156;-71
2021/12/06 09:31:54;;;;;;;32.33;12.80;;;;;;;10.41;29.50;99745.78;5105265;28;20136;-70
2021/12/06 09:34:21;;;;;;;32.83;13.03;;;;;;;10.74;29.16;99766.28;5089540;28;20040;-67
2021/12/06 09:36:48;;;;;;;37.77;14.77;;;;;;;9.88;29.53;99753.75;5071823;28;20127;-71
2021/12/06 09:39:14;;;;;;;28.30;11.80;;;;;;;9.81;29.24;99776.56;5089378;28;20048;-71
2021/12/06 09:41:46;;;;;;;28.27;11.67;;;;;;;10.91;29.01;99776.03;5089446;28;20139;-71
2021/12/06 09:44:13;;;;;;;28.53;12.30;;;;;;;9.49;29.07;99709.88;5051206;28;20191;-70
2021/12/06 09:46:39;;;;;;;27.07;11.10;;;;;;;9.75;29.26;99745.31;5060765;28;20087;-70
2021/12/06 09:49:13;;;;;;;23.43;10.90;;;;;;;11.18;28.54;99763.38;5067665;28;20052;-71
2021/12/06 09:51:42;;;;;;;25.63;10.73;;;;;;;11.13;28.48;99775.50;5067943;28;20093;-70
2021/12/06 09:54:09;;;;;;;25.10;10.90;;;;;;;11.04;28.53;99792.38;5051589;28;20124;-70
2021/12/06 09:56:41;;;;;;;21.63;9.07;;;;;;;10.21;28.73;99796.38;5069308;28;20049;-71
2021/12/06 09:59:10;;;;;;;25.23;10.40;;;;;;;10.70;28.79;99797.63;5069250;28;20048;-71
2021/12/06 10:01:43;;;;;;;26.73;11.17;;;;;;;10.94;28.59;99789.00;5050918;28;20055;-70
2021/12/06 10:04:13;;;;;;;29.53;10.97;;;;;;;10.61;29.08;99785.25;5051352;28;20040;-70
2021/12/06 10:06:39;;;;;;;29.92;11.30;;;;;;;10.54;28.89;99788.69;5067949;28;20046;-70
2021/12/06 10:09:08;;;;;;;31.53;12.27;;;;;;;11.22;28.42;99763.91;5068993;28;20420;-70
2021/12/06 10:11:33;;;;;;;31.07;12.37;;;;;;;10.92;28.25;99783.84;5067520;28;20444;-70
2021/12/06 10:13:59;;;;;;;31.43;11.83;;;;;;;10.86;28.41;99757.03;5051174;28;20047;-69
2021/12/06 10:16:26;;;;;;;26.40;11.33;;;;;;;11.41;28.16;99779.59;5067613;28;20051;-70
2021/12/06 10:18:53;;;;;;;32.23;13.33;;;;;;;11.00;28.29;99780.38;5051563;28;20131;-71
2021/12/06 10:21:19;;;;;;;31.67;13.43;;;;;;;10.23;28.89;99777.66;5034860;28;20072;-70
2021/12/06 10:23:46;;;;;;;33.47;12.80;;;;;;;10.36;29.07;99798.50;5050999;28;20530;-70
2021/12/06 10:26:15;;;;;;;35.37;13.23;;;;;;;10.86;28.67;99789.78;5051345;28;20045;-72
2021/12/06 10:28:43;;;;;;;36.07;14.20;;;;;;;10.55;29.00;99777.09;5067669;28;20075;-71
2021/12/06 10:31:11;;;;;;;34.17;13.80;;;;;;;10.60;29.18;99753.56;5067117;28;20561;-71
2021/12/06 10:33:44;;;;;;;31.17;13.77;;;;;;;11.41;28.25;99785.75;5050985;28;20120;-73
2021/12/06 10:36:13;;;;;;;40.13;14.73;;;;;;;11.11;28.81;99773.00;5068034;28;20166;-71
2021/12/06 10:38:42;;;;;;;38.47;15.07;;;;;;;10.77;29.07;99776.59;5050667;28;20130;-72
2021/12/06 10:41:15;;;;;;;34.83;13.53;;;;;;;11.27;28.42;99759.75;5034213;28;20048;-72
2021/12/06 10:43:53;;;;;;;34.93;14.53;;;;;;;11.18;28.54;99774.00;5084746;28;20060;-72
2021/12/06 10:46:19;;;;;;;35.57;14.73;;;;;;;10.87;28.55;99774.69;5069523;28;20165;-72
2021/12/06 10:48:45;;;;;;;36.60;14.77;;;;;;;10.47;28.62;99761.91;5067552;28;20052;-70
2021/12/06 10:51:16;;;;;;;36.07;14.03;;;;;;;10.98;28.41;99747.84;5067180;28;20051;-69
2021/12/06 10:54:19;;;;;;;38.73;14.57;;;;;;;11.41;28.34;99779.59;5068881;28;20109;-70
2021/12/06 10:56:47;;;;;;;39.37;15.43;;;;;;;11.40;28.38;99789.41;5038553;28;20062;-72
2021/12/06 10:59:37;;;;;;;42.30;14.80;;;;;;;12.06;27.64;99780.66;5070683;28;20100;-72
2021/12/06 11:02:06;;;;;;;34.67;13.87;;;;;;;11.38;28.22;99787.88;5054366;28;20096;-70
2021/12/06 11:04:32;;;;;;;35.23;15.00;;;;;;;11.14;28.10;99782.47;5080257;28;20472;-70
2021/12/06 11:07:05;;;;;;;34.93;14.27;;;;;;;11.27;28.24;99796.19;5070682;28;20087;-71
2021/12/06 11:09:33;;;;;;;45.23;15.53;;;;;;;11.01;28.79;99804.16;5071756;28;20109;-68
2021/12/06 11:12:02;;;;;;;36.37;14.50;;;;;;;11.42;28.35;99775.97;5069875;28;20048;-71
2021/12/06 11:14:34;;;;;;;38.87;15.07;;;;;;;11.95;28.14;99797.78;5071260;28;20044;-72
2021/12/06 11:17:07;;;;;;;40.40;15.90;;;;;;;12.13;27.68;99790.47;5058251;28;20036;-70
2021/12/06 11:19:33;;;;;;;41.47;14.80;;;;;;;10.82;28.90;99792.91;5056826;28;20036;-72
2021/12/06 11:21:59;;;;;;;36.33;14.50;;;;;;;10.35;28.73;99802.97;5070511;28;20036;-70
2021/12/06 11:24:32;;;;;;;38.43;15.53;;;;;;;10.89;28.76;99802.75;5087319;28;20110;-71
2021/12/06 11:27:04;;;;;;;36.87;15.63;;;;;;;11.40;28.27;99799.22;5070740;28;20169;-71
2021/12/06 11:29:32;;;;;;;38.17;16.60;;;;;;;10.83;28.51;99815.81;5054028;28;20049;-72
2021/12/06 11:32:04;;;;;;;35.43;15.43;;;;;;;12.00;27.98;99815.91;5070935;28;20037;-72
2021/12/06 11:34:46;;;;;;;34.90;15.57;;;;;;;11.71;28.05;99809.19;5069971;28;20046;-71
2021/12/06 11:37:20;;;;;;;33.40;15.07;;;;;;;12.03;27.98;99816.44;5069911;28;20054;-72
2021/12/06 11:39:50;;;;;;;39.03;16.17;;;;;;;11.82;28.27;99805.41;5069996;28;20040;-73